Latest Coastal Weather Observations for Derby

IDW60701

Issued at 8:33 pm WST Saturday 23 September 2017 (issued every 10 minutes, with the page automatically refreshed every 10 minutes)

About coastal observations | Map of coastal stations | Coastal observations for WA | Marine services | Other Formats
Station Details ID: 003032 Name: DERBY AERO Lat: -17.37 Lon: 123.66 Height: 6.2 m
Data from the previous 72 hours. | See also: Recent months at Derby
Date/Time
WST
Temp
°C
Wind Pressure Rain since
9am
mm
Weather Cloud Vis
km
Sea
Height
m
Swell
Dir  Spd
kts
Gust
kts
hPa Trend Height
m
Period
s
Dir
23/08:30pm 25.5 NNW 6 7 1012.0 - 0.0 - Clear 10 - - - -
23/08:00pm 25.6 N 6 6 1011.8 - 0.0 - - 10 - - - -
23/07:30pm 26.2 N 6 7 1011.5 - 0.0 - - 10 - - - -
23/07:00pm 26.8 N 6 8 1011.1 - 0.0 - - 10 - - - -
23/06:30pm 27.3 NNW 9 12 1011.0 - 0.0 - - 10 - - - -
23/06:00pm 27.6 NW 8 12 1010.7 - 0.0 - - 10 - - - -
23/05:30pm 29.2 N 12 15 1010.0 - 0.0 - - 10 - - - -
23/05:00pm 30.3 N 14 18 1009.8 - 0.0 - - 10 - - - -
23/04:30pm 31.7 NNW 13 18 1009.6 - 0.0 - - 10 - - - -
23/04:00pm 32.9 NNW 12 15 1009.6 - 0.0 - - 10 - - - -
23/03:30pm 33.4 NNW 13 17 1009.6 - 0.0 - - 10 - - - -
23/03:00pm 33.1 NNW 14 17 1009.5 - 0.0 - - 10 - - - -
23/02:30pm 34.9 NW 11 14 1009.5 - 0.0 - - 10 - - - -
23/02:00pm 35.6 NW 8 11 1009.8 - 0.0 - - 10 - - - -
23/01:30pm 36.9 WNW 9 15 1010.1 - 0.0 - - 10 - - - -
23/01:00pm 36.3 W 7 13 1010.8 - 0.0 - - 10 - - - -
23/12:30pm 35.6 SW 8 14 1011.3 - 0.0 - - 10 - - - -
23/12:00pm 35.4 SSW 6 11 1011.9 - 0.0 - Mostly clear 10 - - - -
23/11:30am 33.9 WSW 9 12 1012.7 - 0.0 - - 10 - - - -
23/11:00am 33.2 W 8 12 1013.2 - 0.0 - - 10 - - - -
23/10:30am 33.0 W 8 11 1013.6 - 0.0 - - 10 - - - -
23/10:00am 32.3 WSW 6 9 1014.0 - 0.0 - - 10 - - - -
23/09:30am 31.3 SSW 5 8 1014.3 - 0.0 - - 10 - - - -
23/09:00am 30.4 SW 5 8 1014.4 - 0.0 - - 10 - - - -
23/08:30am 28.8 NNW 3 5 1014.5 - 0.0 - - 10 - - - -
23/08:00am 26.8 NNW 5 7 1014.5 - 0.0 - - 10 - - - -
23/07:30am 25.8 N 5 6 1014.2 - 0.0 - - 10 - - - -
23/07:00am 23.7 NE 7 8 1013.8 - 0.0 - - 10 - - - -
23/06:30am 21.6 NE 5 7 1013.3 - 0.0 - - 10 - - - -
23/06:00am 20.2 NE 5 7 1013.0 - 0.0 - - 10 - - - -
23/05:30am 19.9 NE 6 7 1012.8 - 0.0 - - 10 - - - -
23/05:00am 20.1 ENE 6 8 1012.4 - 0.0 - - 10 - - - -
23/04:30am 20.4 NE 6 8 1012.1 - 0.0 - - 10 - - - -
23/04:00am 20.4 ENE 6 7 1011.8 - 0.0 - - 10 - - - -
23/03:30am 20.2 ENE 6 7 1011.5 - 0.0 - - 10 - - - -
23/03:00am 20.3 NE 5 6 1011.4 - 0.0 - - 10 - - - -
23/02:30am 20.1 NE 6 7 1011.3 - 0.0 - - 10 - - - -
23/02:00am 19.9 E 5 6 1011.3 - 0.0 - - 10 - - - -
23/01:30am 20.2 SE 5 5 1011.1 - 0.0 - - 10 - - - -
23/01:00am 19.8 SSE 5 6 1011.1 - 0.0 - - 10 - - - -
23/12:30am 19.7 SE 1 5 1011.1 - 0.0 - - 10 - - - -
23/12:00am 21.0 CALM 0 0 1011.2 - 0.0 - - 10 - - - -
 
Date/Time
WST
Temp
°C
Wind Pressure Rain since
9am
mm
Weather Cloud Vis
km
Sea
Height
m
Swell
Dir  Spd
kts
Gust
kts
hPa Trend Height
m
Period
s
Dir
22/11:30pm 22.4 S 5 6 1011.3 - 0.0 - - 10 - - - -
22/11:00pm 22.3 S 5 7 1011.4 - 0.0 - - 10 - - - -
22/10:30pm 23.4 SW 7 9 1011.7 - 0.0 - - 10 - - - -
22/10:00pm 24.3 SW 5 6 1012.0 - 0.0 - - 10 - - - -
22/09:30pm 24.9 WSW 6 7 1012.0 - 0.0 - - 10 - - - -
22/09:00pm 24.5 SW 4 6 1012.0 - 0.0 - - 10 - - - -
22/08:30pm 24.6 SSE 3 4 1011.8 - 0.0 - - 10 - - - -
22/08:00pm 26.2 WSW 4 5 1011.6 - 0.0 - - 10 - - - -
22/07:30pm 26.0 W 4 5 1011.2 - 0.0 - - 10 - - - -
22/07:00pm 26.9 WNW 5 6 1010.9 - 0.0 - - 10 - - - -
22/06:30pm 28.1 WNW 6 8 1010.5 - 0.0 - - 10 - - - -
22/06:00pm 29.8 NNE 5 6 1010.0 - 0.0 - - 10 - - - -
22/05:30pm 30.9 N 8 11 1009.9 - 0.0 - - 10 - - - -
22/05:00pm 32.2 N 9 11 1009.8 - 0.0 - - 10 - - - -
22/04:30pm 33.5 N 11 14 1009.8 - 0.0 - - 10 - - - -
22/04:00pm 33.9 N 12 15 1009.7 - 0.0 - - 10 - - - -
22/03:30pm 34.7 NNW 11 14 1009.7 - 0.0 - - 10 - - - -
22/03:00pm 36.4 NNW 9 12 1009.6 - 0.0 - - 10 - - - -
22/02:30pm 36.0 NNW 9 13 1009.9 - 0.0 - - 10 - - - -
22/02:00pm 35.0 NW 7 10 1010.1 - 0.0 - - 10 - - - -
22/01:30pm 34.8 NNW 8 11 1010.5 - 0.0 - - 10 - - - -
22/01:00pm 33.9 NW 7 10 1010.9 - 0.0 - - 10 - - - -
22/12:30pm 33.7 NW 8 11 1011.4 - 0.0 - - 10 - - - -
22/12:00pm 32.8 NW 8 12 1011.9 - 0.0 - - 10 - - - -
22/11:30am 32.4 NNW 8 13 1012.4 - 0.0 - - 10 - - - -
22/11:00am 32.2 NNW 8 11 1012.8 - 0.0 - - 10 - - - -
22/10:30am 32.4 NW 9 12 1013.3 - 0.0 - - 10 - - - -
22/10:00am 30.2 NW 10 13 1013.6 - 0.0 - - 10 - - - -
22/09:30am 30.8 NW 8 12 1013.7 - 0.0 - - 10 - - - -
22/09:00am 29.8 NNW 7 10 1013.7 - 0.0 - - 10 - - - -
22/08:30am 29.1 N 6 9 1013.7 - 0.0 - - 10 - - - -
22/08:00am 28.6 NE 5 7 1013.5 - 0.0 - - 10 - - - -
22/07:30am 26.3 NE 3 6 1013.2 - 0.0 - - 10 - - - -
22/07:00am 23.6 ENE 4 6 1012.9 - 0.0 - - 10 - - - -
22/06:30am 21.4 ENE 5 7 1012.6 - 0.0 - - 10 - - - -
22/06:00am 20.5 NE 5 7 1012.2 - 0.0 - - 10 - - - -
22/05:30am 19.2 E 6 8 1011.8 - 0.0 - - 10 - - - -
22/05:00am 20.6 N 4 8 1011.7 - 0.0 - - 10 - - - -
22/04:30am 21.1 N 7 13 1011.2 - 0.0 - - 10 - - - -
22/04:00am 20.7 E 8 18 1010.6 - 0.0 - - 10 - - - -
22/03:30am 20.5 SSE 7 9 1009.8 - 0.0 - - 10 - - - -
22/03:00am 21.1 SSE 8 9 1009.5 - 0.0 - - 10 - - - -
22/02:30am 20.6 SSE 8 10 1009.4 - 0.0 - - 10 - - - -
22/02:00am 20.5 SSE 8 9 1009.6 - 0.0 - - 10 - - - -
22/01:30am 20.8 SSE 7 8 1009.8 - 0.0 - - 10 - - - -
22/01:00am 21.3 SSE 7 9 1009.8 - 0.0 - - 10 - - - -
22/12:30am 21.1 SSE 6 7 1009.9 - 0.0 - - 10 - - - -
22/12:00am 21.8 SE 8 11 1010.2 - 0.0 - - 10 - - - -
 
Date/Time
WST
Temp
°C
Wind Pressure Rain since
9am
mm
Weather Cloud Vis
km
Sea
Height
m
Swell
Dir  Spd
kts
Gust
kts
hPa Trend Height
m
Period
s
Dir
21/11:30pm 21.0 S 8 9 1010.4 - 0.0 - - 10 - - - -
21/11:00pm 20.5 SE 3 5 1011.0 - 0.0 - - 10 - - - -
21/10:30pm 21.4 CALM 0 0 1011.2 - 0.0 - - 10 - - - -
21/10:00pm 22.7 CALM 0 0 1011.3 - 0.0 - - 10 - - - -
21/09:30pm 24.7 CALM 0 0 1011.4 - 0.0 - - 10 - - - -
21/09:00pm 24.9 SW 4 5 1011.2 - 0.0 - - 10 - - - -
21/08:30pm 25.6 WSW 3 4 1011.3 - 0.0 - - 10 - - - -
21/08:00pm 26.3 SW 5 9 1011.2 - 0.0 - - 10 - - - -
21/07:30pm 27.1 NW 9 11 1010.6 - 0.0 - - 10 - - - -
21/07:00pm 27.7 N 8 9 1009.9 - 0.0 - - 10 - - - -
21/06:30pm 27.9 N 8 9 1009.4 - 0.0 - - 10 - - - -
21/06:00pm 29.0 NNW 9 11 1009.1 - 0.0 - - 10 - - - -
21/05:30pm 31.1 NNW 10 13 1008.8 - 0.0 - - 10 - - - -
21/05:00pm 33.3 NNW 10 12 1008.6 - 0.0 - - 10 - - - -
21/04:30pm 34.8 NNW 10 11 1008.5 - 0.0 - - 10 - - - -
21/04:00pm 35.5 NNW 9 11 1008.6 - 0.0 - - 10 - - - -
21/03:30pm 36.3 NNW 9 12 1008.6 - 0.0 - - 10 - - - -
21/03:00pm 36.5 NW 9 11 1008.8 - 0.0 - - 10 - - - -
21/02:30pm 37.5 WNW 7 11 1009.1 - 0.0 - - 10 - - - -
21/02:00pm 36.9 NW 8 13 1009.5 - 0.0 - - 10 - - - -
21/01:30pm 36.5 NW 8 11 1010.0 - 0.0 - - 10 - - - -
21/01:00pm 35.3 WNW 8 13 1010.6 - 0.0 - - 10 - - - -
21/12:30pm 34.6 WNW 9 12 1011.1 - 0.0 - - 10 - - - -
21/12:00pm 34.8 WNW 8 12 1011.6 - 0.0 - Mostly clear 10 - - - -
21/11:30am 34.9 W 7 10 1012.2 - 0.0 - - 10 - - - -
21/11:00am 33.7 NW 5 9 1012.7 - 0.0 - - 10 - - - -
21/10:30am 32.3 NNW 6 11 1013.1 - 0.0 - - 10 - - - -
21/10:00am 32.0 NNW 6 8 1013.4 - 0.0 - - 10 - - - -
21/09:30am 31.0 N 5 7 1013.7 - 0.0 - - 10 - - - -
21/09:00am 28.9 N 7 10 1013.9 - 0.0 - - 10 - - - -
21/08:30am 27.6 N 7 10 1014.0 - 0.0 - - 10 - - - -
21/08:00am 26.6 NNE 7 10 1014.0 - 0.0 - - 10 - - - -
21/07:30am 25.0 NNE 7 9 1013.9 - 0.0 - - 10 - - - -
21/07:00am 23.0 NE 4 6 1013.8 - 0.0 - - 10 - - - -
21/06:30am 20.3 NE 4 5 1013.5 - 0.0 - - 10 - - - -
21/06:00am 19.4 NE 7 8 1013.2 - 0.0 - - 10 - - - -
21/05:30am 18.6 NE 5 6 1012.9 - 0.0 - - 10 - - - -
21/05:00am 17.9 NE 6 8 1012.6 - 0.0 - - 10 - - - -
21/04:30am 17.8 NE 5 6 1012.2 - 0.0 - - 10 - - - -
21/04:00am 18.0 NE 6 8 1012.1 - 0.0 - - 10 - - - -
21/03:30am 16.9 N 1 4 1011.7 - 0.0 - - 10 - - - -
21/03:00am 15.8 CALM 0 0 1011.5 - 0.0 - - 10 - - - -
21/02:30am 18.0 E 4 5 1011.5 - 0.0 - - 10 - - - -
21/02:00am 19.3 E 5 6 1011.8 - 0.0 - - 10 - - - -
21/01:30am 18.3 ESE 5 6 1011.7 - 0.0 - - 10 - - - -
21/01:00am 19.9 SSW 3 5 1011.7 - 0.0 - - 10 - - - -
21/12:30am 20.5 SSW 1 4 1011.9 - 0.0 - - 10 - - - -
21/12:00am 22.0 SSW 11 13 1011.3 - 0.0 - - 10 - - - -
 
Date/Time
WST
Temp
°C
Wind Pressure Rain since
9am
mm
Weather Cloud Vis
km
Sea
Height
m
Swell
Dir  Spd
kts
Gust
kts
hPa Trend Height
m
Period
s
Dir
20/11:30pm 22.9 S 8 10 1011.5 - 0.0 - - 10 - - - -
20/11:00pm 21.1 SSE 5 6 1011.5 - 0.0 - - 10 - - - -
20/10:30pm 20.1 SSW 3 4 1011.4 - 0.0 - - 10 - - - -
20/10:00pm 21.3 CALM 0 0 1011.5 - 0.0 - - 10 - - - -
20/09:30pm 24.1 W 5 6 1011.5 - 0.0 - - 10 - - - -
20/09:00pm 24.8 NNW 3 4 1011.6 - 0.0 - - 10 - - - -

Other Formats:

Comma delimited format used in spreadsheet applications
http://www.bom.gov.au/fwo/IDW60701/IDW60701.95205.axf

JavaScript Object Notation format (JSON) in row-major order
http://www.bom.gov.au/fwo/IDW60701/IDW60701.95205.json